Terminal Aerodrome Forecast
Issued by NWS

Home | Current Version | Previous Version | Text Only | Print | Product List | Glossary On
Versions: 1 2 3 4 5 6 7 8 9 10 11 12 13 14 15 16 17 18 19 20 21 22 23 24 25 26 27 28 29 30 31 32 33 34 35 36 37 38 39 40 41 42 43 44 45 46 47 48 49 50
000
FTUS43 KDMX 220806 AAA
TAFOTM
TAF AMD
KOTM 220806Z 2208/2306 16014KT P6SM SCT025 OVC035
     FM221000 15014KT 6SM -RA BR SCT009 BKN014
     FM221200 13015KT 3SM -RA BR OVC005
     FM221800 14010KT 1SM -RA BR OVC008
     FM230300 09007KT 3SM -RA BR OVC002=

USA.gov is the U.S. government's official web portal to all federal, state and local government web resources and services.